Time,TemperatureF,DewpointF,PressureIn,WindDirection,WindDirectionDegrees,WindSpeedMPH,WindSpeedGustMPH,Humidity,HourlyPrecipIn,Conditions,Clouds,dailyrainin,SoftwareType,DateUTC
2013-02-06 00:00:00,40.6,26.2,29.99,NW,315,7.0,14.0,56,0.00,,,0.00,meteohub,2013-02-06 05:00:00,
2013-02-06 00:05:00,40.8,26.4,29.99,WNW,292,9.0,11.0,56,0.00,,,0.00,meteohub,2013-02-06 05:05:00,
2013-02-06 00:10:00,40.6,26.2,29.99,NW,315,6.0,11.0,56,0.00,,,0.00,meteohub,2013-02-06 05:10:00,
2013-02-06 00:15:00,40.8,26.8,29.99,WNW,292,11.0,11.0,57,0.00,,,0.00,meteohub,2013-02-06 05:15:00,
2013-02-06 00:20:00,40.6,26.6,29.99,WNW,292,6.0,14.0,57,0.00,,,0.00,meteohub,2013-02-06 05:20:00,
2013-02-06 00:25:00,40.8,27.1,29.99,NW,315,6.0,14.0,58,0.00,,,0.00,meteohub,2013-02-06 05:25:00,
2013-02-06 00:30:00,40.6,27.1,29.99,NNW,338,6.0,14.0,58,0.00,,,0.00,meteohub,2013-02-06 05:30:00,
2013-02-06 00:35:00,40.6,27.5,29.99,NW,315,11.0,15.0,59,0.00,,,0.00,meteohub,2013-02-06 05:35:00,
2013-02-06 00:40:00,40.6,27.9,29.99,West,270,11.0,15.0,60,0.00,,,0.00,meteohub,2013-02-06 05:40:00,
2013-02-06 00:45:00,40.8,28.0,29.99,NW,315,6.0,15.0,60,0.00,,,0.00,meteohub,2013-02-06 05:45:00,
2013-02-06 00:50:00,40.6,27.9,29.99,NNW,338,9.0,13.0,60,0.00,,,0.00,meteohub,2013-02-06 05:50:00,
2013-02-06 00:55:00,40.6,27.9,30.03,WNW,292,6.0,13.0,60,0.00,,,0.00,meteohub,2013-02-06 05:55:00,
2013-02-06 01:00:00,40.6,28.2,30.03,NNE,22,7.0,11.0,61,0.00,,,0.00,meteohub,2013-02-06 06:00:00,
2013-02-06 01:05:00,40.5,28.0,30.03,NNW,338,6.0,11.0,61,0.00,,,0.00,meteohub,2013-02-06 06:05:00,
2013-02-06 01:10:00,40.5,28.6,30.03,NW,315,4.0,11.0,62,0.00,,,0.00,meteohub,2013-02-06 06:10:00,
2013-02-06 01:15:00,40.5,28.0,30.03,NW,315,6.0,14.0,61,0.00,,,0.00,meteohub,2013-02-06 06:15:00,
2013-02-06 01:20:00,40.3,28.4,30.03,WNW,292,6.0,14.0,62,0.00,,,0.00,meteohub,2013-02-06 06:20:00,
2013-02-06 01:25:00,40.3,28.8,30.00,WNW,292,7.0,14.0,63,0.00,,,0.00,meteohub,2013-02-06 06:25:00,
2013-02-06 01:30:00,40.1,28.6,30.00,NNW,338,6.0,17.0,63,-99.99,,,0.00,meteohub,2013-02-06 06:30:00,
2013-02-06 01:35:00,39.9,28.4,30.00,West,270,7.0,17.0,63,0.00,,,0.00,meteohub,2013-02-06 06:35:00,
2013-02-06 01:41:00,39.7,27.9,30.04,NNW,338,6.0,15.0,62,0.00,,,0.00,meteohub,2013-02-06 06:41:00,
2013-02-06 01:46:00,39.7,28.2,30.04,NNW,338,10.0,15.0,63,0.00,,,0.00,meteohub,2013-02-06 06:46:00,
2013-02-06 01:51:00,39.7,28.2,30.04,WNW,292,7.0,10.0,63,0.00,,,0.00,meteohub,2013-02-06 06:51:00,
2013-02-06 01:56:00,39.6,28.4,30.00,NW,315,9.0,11.0,64,0.00,,,0.00,meteohub,2013-02-06 06:56:00,
2013-02-06 02:01:00,39.4,28.6,30.00,NW,315,6.0,11.0,65,0.00,,,0.00,meteohub,2013-02-06 07:01:00,
2013-02-06 02:06:00,39.4,28.6,30.00,WNW,292,6.0,13.0,65,0.00,,,0.00,meteohub,2013-02-06 07:06:00,
2013-02-06 02:11:00,39.2,28.4,30.01,NW,315,5.0,13.0,65,0.00,,,0.00,meteohub,2013-02-06 07:11:00,
2013-02-06 02:16:00,39.0,28.6,30.01,WNW,292,7.0,13.0,66,0.00,,,0.00,meteohub,2013-02-06 07:16:00,
2013-02-06 02:21:00,38.8,28.4,30.01,North,0,6.0,13.0,66,0.00,,,0.00,meteohub,2013-02-06 07:21:00,
2013-02-06 02:26:00,38.8,28.9,30.01,NW,315,7.0,13.0,67,0.00,,,0.00,meteohub,2013-02-06 07:26:00,
2013-02-06 02:31:00,38.7,28.8,30.01,WNW,292,6.0,10.0,67,0.00,,,0.00,meteohub,2013-02-06 07:31:00,
2013-02-06 02:36:00,38.5,28.2,30.01,WNW,292,6.0,11.0,66,0.00,,,0.00,meteohub,2013-02-06 07:36:00,
2013-02-06 02:41:00,38.5,28.2,30.04,WNW,292,8.0,11.0,66,0.00,,,0.00,meteohub,2013-02-06 07:41:00,
2013-02-06 02:46:00,38.1,27.9,30.05,WNW,292,7.0,11.0,66,0.00,,,0.00,meteohub,2013-02-06 07:46:00,
2013-02-06 02:51:00,38.1,27.1,30.05,NW,315,7.0,9.0,64,0.00,,,0.00,meteohub,2013-02-06 07:51:00,
2013-02-06 02:56:00,38.1,26.6,30.01,NNW,338,6.0,11.0,63,0.00,,,0.00,meteohub,2013-02-06 07:56:00,
2013-02-06 03:01:00,37.9,26.4,30.01,NW,315,10.0,11.0,63,0.00,,,0.00,meteohub,2013-02-06 08:01:00,
2013-02-06 03:06:00,37.8,27.1,30.02,NW,315,8.0,11.0,65,0.00,,,0.00,meteohub,2013-02-06 08:06:00,
2013-02-06 03:11:00,37.8,26.4,30.02,North,0,7.0,12.0,63,0.00,,,0.00,meteohub,2013-02-06 08:11:00,
2013-02-06 03:16:00,37.6,26.6,30.02,WNW,292,7.0,12.0,64,0.00,,,0.00,meteohub,2013-02-06 08:16:00,
2013-02-06 03:21:00,37.4,26.1,30.02,NW,315,6.0,13.0,63,0.00,,,0.00,meteohub,2013-02-06 08:21:00,
2013-02-06 03:26:00,37.4,25.5,30.02,WNW,292,8.0,13.0,62,0.00,,,0.00,meteohub,2013-02-06 08:26:00,
2013-02-06 03:32:00,37.2,25.5,30.02,WNW,292,10.0,13.0,62,0.00,,,0.00,meteohub,2013-02-06 08:32:00,
2013-02-06 03:37:00,37.4,25.2,30.02,WNW,292,8.0,13.0,61,0.00,,,0.00,meteohub,2013-02-06 08:37:00,
2013-02-06 03:42:00,37.0,25.3,30.06,NW,315,4.0,13.0,62,0.00,,,0.00,meteohub,2013-02-06 08:42:00,
2013-02-06 03:47:00,37.0,25.3,30.06,WNW,292,6.0,12.0,62,0.00,,,0.00,meteohub,2013-02-06 08:47:00,
2013-02-06 03:52:00,36.9,25.5,30.06,NW,315,6.0,12.0,63,0.00,,,0.00,meteohub,2013-02-06 08:52:00,
2013-02-06 03:57:00,36.5,25.2,30.03,NW,315,6.0,12.0,63,0.00,,,0.00,meteohub,2013-02-06 08:57:00,
2013-02-06 04:02:00,36.3,24.3,30.03,North,0,6.0,12.0,61,0.00,,,0.00,meteohub,2013-02-06 09:02:00,
2013-02-06 04:07:00,36.1,25.2,30.03,NW,315,5.0,10.0,64,0.00,,,0.00,meteohub,2013-02-06 09:07:00,
2013-02-06 04:12:00,36.1,24.8,30.06,NW,315,7.0,11.0,63,0.00,,,0.00,meteohub,2013-02-06 09:12:00,
2013-02-06 04:17:00,36.0,24.6,30.07,NW,315,4.0,11.0,63,0.00,,,0.00,meteohub,2013-02-06 09:17:00,
2013-02-06 04:22:00,35.8,24.8,30.07,NNW,338,4.0,9.0,64,0.00,,,0.00,meteohub,2013-02-06 09:22:00,
2013-02-06 04:27:00,35.4,24.8,30.07,NW,315,7.0,12.0,65,0.00,,,0.00,meteohub,2013-02-06 09:27:00,
2013-02-06 04:32:00,35.4,25.2,30.07,NW,315,4.0,12.0,66,0.00,,,0.00,meteohub,2013-02-06 09:32:00,
2013-02-06 04:37:00,35.2,25.3,30.07,NW,315,4.0,9.0,67,0.00,,,0.00,meteohub,2013-02-06 09:37:00,
2013-02-06 04:42:00,35.1,24.8,30.07,NW,315,6.0,9.0,66,0.00,,,0.00,meteohub,2013-02-06 09:42:00,
2013-02-06 04:47:00,35.1,24.8,30.07,WNW,292,4.0,11.0,66,0.00,,,0.00,meteohub,2013-02-06 09:47:00,
2013-02-06 04:52:00,35.1,24.8,30.07,WNW,292,6.0,11.0,66,0.00,,,0.00,meteohub,2013-02-06 09:52:00,
2013-02-06 04:57:00,34.9,24.6,30.08,NNW,338,6.0,11.0,66,0.00,,,0.00,meteohub,2013-02-06 09:57:00,
2013-02-06 05:02:00,34.9,24.6,30.08,NNW,338,6.0,10.0,66,0.00,,,0.00,meteohub,2013-02-06 10:02:00,
2013-02-06 05:07:00,34.7,24.6,30.08,NNW,338,5.0,10.0,66,0.00,,,0.00,meteohub,2013-02-06 10:07:00,
2013-02-06 05:12:00,34.5,24.8,30.11,WNW,292,5.0,10.0,67,0.00,,,0.00,meteohub,2013-02-06 10:12:00,
2013-02-06 05:17:00,34.3,24.6,30.12,WNW,292,2.0,10.0,67,0.00,,,0.00,meteohub,2013-02-06 10:17:00,
2013-02-06 05:22:00,34.3,24.3,30.12,NW,315,6.0,9.0,66,0.00,,,0.00,meteohub,2013-02-06 10:22:00,
2013-02-06 05:27:00,34.3,24.6,30.08,NNE,22,4.0,9.0,67,0.00,,,0.00,meteohub,2013-02-06 10:27:00,
2013-02-06 05:32:00,34.2,24.4,30.08,NW,315,6.0,10.0,67,0.00,,,0.00,meteohub,2013-02-06 10:32:00,
2013-02-06 05:37:00,34.0,24.3,30.08,NW,315,6.0,10.0,67,0.00,,,0.00,meteohub,2013-02-06 10:37:00,
2013-02-06 05:42:00,34.0,24.3,30.12,WNW,292,3.0,10.0,67,0.00,,,0.00,meteohub,2013-02-06 10:42:00,
2013-02-06 05:47:00,33.8,23.7,30.12,WNW,292,5.0,10.0,66,0.00,,,0.00,meteohub,2013-02-06 10:47:00,
2013-02-06 05:52:00,33.8,23.7,30.12,NW,315,4.0,10.0,66,0.00,,,0.00,meteohub,2013-02-06 10:52:00,
2013-02-06 05:57:00,33.8,23.4,30.12,WNW,292,6.0,9.0,65,0.00,,,0.00,meteohub,2013-02-06 10:57:00,
2013-02-06 06:02:00,33.6,23.5,30.12,WNW,292,3.0,13.0,66,0.00,,,0.00,meteohub,2013-02-06 11:02:00,
2013-02-06 06:07:00,33.6,23.2,30.12,NW,315,6.0,13.0,65,0.00,,,0.00,meteohub,2013-02-06 11:07:00,
2013-02-06 06:12:00,33.4,23.0,30.12,NNW,338,6.0,13.0,65,0.00,,,0.00,meteohub,2013-02-06 11:12:00,
2013-02-06 06:17:00,33.4,22.6,30.12,NNW,338,7.0,11.0,64,0.00,,,0.00,meteohub,2013-02-06 11:17:00,
2013-02-06 06:22:00,33.3,21.7,30.12,ENE,68,8.0,11.0,62,0.00,,,0.00,meteohub,2013-02-06 11:22:00,
2013-02-06 06:27:00,33.3,21.7,30.12,North,0,8.0,11.0,62,0.00,,,0.00,meteohub,2013-02-06 11:27:00,
2013-02-06 06:32:00,33.1,21.6,30.13,SW,225,3.0,11.0,62,0.00,,,0.00,meteohub,2013-02-06 11:32:00,
2013-02-06 06:37:00,32.9,21.0,30.13,WNW,292,4.0,8.0,61,0.00,,,0.00,meteohub,2013-02-06 11:37:00,
2013-02-06 06:42:00,32.9,21.4,30.13,WNW,292,9.0,9.0,62,0.00,,,0.00,meteohub,2013-02-06 11:42:00,
2013-02-06 06:47:00,32.7,21.2,30.13,WNW,292,1.0,7.0,62,0.00,,,0.00,meteohub,2013-02-06 11:47:00,
2013-02-06 06:52:00,32.7,21.6,30.16,NNW,338,4.0,9.0,63,0.00,,,0.00,meteohub,2013-02-06 11:52:00,
2013-02-06 06:57:00,32.7,21.6,30.16,West,270,0.0,9.0,63,0.00,,,0.00,meteohub,2013-02-06 11:57:00,
2013-02-06 07:02:00,32.5,21.4,30.17,NNE,22,3.0,8.0,63,0.00,,,0.00,meteohub,2013-02-06 12:02:00,
2013-02-06 07:07:00,32.4,21.2,30.17,WNW,292,0.0,8.0,63,0.00,,,0.00,meteohub,2013-02-06 12:07:00,
2013-02-06 07:12:00,32.5,21.4,30.17,WNW,292,4.0,8.0,63,0.00,,,0.00,meteohub,2013-02-06 12:12:00,
2013-02-06 07:17:00,32.5,21.4,30.17,SW,225,4.0,7.0,63,0.00,,,0.00,meteohub,2013-02-06 12:17:00,
2013-02-06 07:22:00,32.4,21.2,30.17,WNW,292,6.0,7.0,63,0.00,,,0.00,meteohub,2013-02-06 12:22:00,
2013-02-06 07:27:00,32.5,21.4,30.17,WNW,292,2.0,7.0,63,0.00,,,0.00,meteohub,2013-02-06 12:27:00,
2013-02-06 07:32:00,32.4,21.2,30.17,WNW,292,3.0,6.0,63,0.00,,,0.00,meteohub,2013-02-06 12:32:00,
2013-02-06 07:37:00,32.4,21.2,30.17,West,270,1.0,6.0,63,0.00,,,0.00,meteohub,2013-02-06 12:37:00,
2013-02-06 07:42:00,32.4,21.2,30.20,North,0,0.0,6.0,63,0.00,,,0.00,meteohub,2013-02-06 12:42:00,
2013-02-06 07:47:00,32.4,21.6,30.20,SSW,202,3.0,6.0,64,0.00,,,0.00,meteohub,2013-02-06 12:47:00,
2013-02-06 07:52:00,32.4,21.6,30.20,NW,315,3.0,6.0,64,0.00,,,0.00,meteohub,2013-02-06 12:52:00,
2013-02-06 07:57:00,32.5,21.4,30.20,ESE,112,0.0,4.0,63,0.00,,,0.00,meteohub,2013-02-06 12:57:00,
2013-02-06 08:02:00,32.5,21.0,30.20,West,270,0.0,4.0,62,0.00,,,0.00,meteohub,2013-02-06 13:02:00,
2013-02-06 08:07:00,32.7,21.2,30.20,WNW,292,4.0,5.0,62,0.00,,,0.00,meteohub,2013-02-06 13:07:00,
2013-02-06 08:12:00,32.7,21.2,30.20,WSW,248,2.0,6.0,62,0.00,,,0.00,meteohub,2013-02-06 13:12:00,
2013-02-06 08:17:00,32.9,21.0,30.19,West,270,2.0,6.0,61,0.00,,,0.00,meteohub,2013-02-06 13:17:00,
2013-02-06 08:22:00,32.9,21.4,30.23,NNW,338,0.0,6.0,62,0.00,,,0.00,meteohub,2013-02-06 13:22:00,
2013-02-06 08:27:00,32.9,21.0,30.23,WNW,292,2.0,6.0,61,0.00,,,0.00,meteohub,2013-02-06 13:27:00,
2013-02-06 08:32:00,33.1,20.7,30.23,NW,315,2.0,6.0,60,0.00,,,0.00,meteohub,2013-02-06 13:32:00,
2013-02-06 08:37:00,33.3,20.5,30.23,NW,315,4.0,4.0,59,0.00,,,0.00,meteohub,2013-02-06 13:37:00,
2013-02-06 08:42:00,33.3,20.8,30.23,WNW,292,1.0,5.0,60,0.00,,,0.00,meteohub,2013-02-06 13:42:00,
2013-02-06 08:47:00,33.6,20.8,30.22,West,270,2.0,5.0,59,0.00,,,0.00,meteohub,2013-02-06 13:47:00,
2013-02-06 08:52:00,33.8,21.0,30.22,NNW,338,3.0,9.0,59,0.00,,,0.00,meteohub,2013-02-06 13:52:00,
2013-02-06 08:57:00,33.8,21.0,30.22,NW,315,3.0,9.0,59,0.00,,,0.00,meteohub,2013-02-06 13:57:00,
2013-02-06 09:02:00,34.0,21.2,30.22,WNW,292,4.0,9.0,59,0.00,,,0.00,meteohub,2013-02-06 14:02:00,
2013-02-06 09:08:00,34.2,20.5,30.25,NW,315,4.0,8.0,57,0.00,,,0.00,meteohub,2013-02-06 14:08:00,
2013-02-06 09:13:00,34.3,21.2,30.25,NW,315,4.0,8.0,58,0.00,,,0.00,meteohub,2013-02-06 14:13:00,
2013-02-06 09:18:00,34.5,21.4,30.25,WNW,292,2.0,6.0,58,0.00,,,0.00,meteohub,2013-02-06 14:18:00,
2013-02-06 09:23:00,34.5,20.8,30.25,WNW,292,4.0,6.0,57,0.00,,,0.00,meteohub,2013-02-06 14:23:00,
2013-02-06 09:28:00,34.9,20.8,30.25,NW,315,4.0,6.0,56,0.00,,,0.00,meteohub,2013-02-06 14:28:00,
2013-02-06 09:33:00,34.9,20.5,30.25,WNW,292,3.0,6.0,55,0.00,,,0.00,meteohub,2013-02-06 14:33:00,
2013-02-06 09:38:00,35.2,19.9,30.24,West,270,3.0,7.0,53,0.00,,,0.00,meteohub,2013-02-06 14:38:00,
2013-02-06 09:43:00,35.4,19.6,30.24,NW,315,4.0,7.0,52,0.00,,,0.00,meteohub,2013-02-06 14:43:00,
2013-02-06 09:48:00,35.8,19.4,30.24,NNW,338,4.0,7.0,51,0.00,,,0.00,meteohub,2013-02-06 14:48:00,
2013-02-06 09:53:00,36.0,19.6,30.24,WNW,292,3.0,6.0,51,0.00,,,0.00,meteohub,2013-02-06 14:53:00,
2013-02-06 09:58:00,36.3,19.6,30.23,NNW,338,4.0,6.0,50,0.00,,,0.00,meteohub,2013-02-06 14:58:00,
2013-02-06 10:03:00,36.5,19.8,30.23,NNE,22,3.0,5.0,50,0.00,,,0.00,meteohub,2013-02-06 15:03:00,
2013-02-06 10:08:00,36.7,19.4,30.23,WNW,292,3.0,7.0,49,0.00,,,0.00,meteohub,2013-02-06 15:08:00,
2013-02-06 10:13:00,36.9,19.0,30.23,NW,315,3.0,7.0,48,0.00,,,0.00,meteohub,2013-02-06 15:13:00,
2013-02-06 10:18:00,37.0,18.3,30.23,WNW,292,4.0,5.0,46,0.00,,,0.00,meteohub,2013-02-06 15:18:00,
2013-02-06 10:23:00,37.4,17.6,30.22,NNW,338,6.0,6.0,44,0.00,,,0.00,meteohub,2013-02-06 15:23:00,
2013-02-06 10:28:00,37.6,17.2,30.22,WNW,292,4.0,6.0,43,0.00,,,0.00,meteohub,2013-02-06 15:28:00,
2013-02-06 10:33:00,37.9,18.5,30.22,NW,315,4.0,8.0,45,0.00,,,0.00,meteohub,2013-02-06 15:33:00,
2013-02-06 10:38:00,37.9,17.4,30.22,NW,315,3.0,8.0,43,0.00,,,0.00,meteohub,2013-02-06 15:38:00,
2013-02-06 10:43:00,38.1,17.6,30.22,WNW,292,5.0,8.0,43,0.00,,,0.00,meteohub,2013-02-06 15:43:00,
2013-02-06 10:48:00,38.5,17.4,30.22,NW,315,3.0,6.0,42,0.00,,,0.00,meteohub,2013-02-06 15:48:00,
2013-02-06 10:53:00,38.5,17.4,30.25,West,270,2.0,6.0,42,0.00,,,0.00,meteohub,2013-02-06 15:53:00,
2013-02-06 10:58:00,38.8,17.8,30.25,NW,315,3.0,6.0,42,0.00,,,0.00,meteohub,2013-02-06 15:58:00,
2013-02-06 11:03:00,39.2,16.9,30.25,NW,315,4.0,6.0,40,0.00,,,0.00,meteohub,2013-02-06 16:03:00,
2013-02-06 11:08:00,39.4,17.1,30.24,NW,315,5.0,6.0,40,0.00,,,0.00,meteohub,2013-02-06 16:08:00,
2013-02-06 11:13:00,39.6,17.2,30.24,WNW,292,3.0,6.0,40,0.00,,,0.00,meteohub,2013-02-06 16:13:00,
2013-02-06 11:18:00,39.6,16.7,30.24,NNW,338,6.0,6.0,39,0.00,,,0.00,meteohub,2013-02-06 16:18:00,
2013-02-06 11:23:00,39.9,17.1,30.24,WSW,248,2.0,6.0,39,0.00,,,0.00,meteohub,2013-02-06 16:23:00,
2013-02-06 11:28:00,40.5,18.1,30.23,NW,315,4.0,6.0,40,0.00,,,0.00,meteohub,2013-02-06 16:28:00,
2013-02-06 11:33:00,40.5,17.6,30.23,West,270,4.0,6.0,39,0.00,,,0.00,meteohub,2013-02-06 16:33:00,
2013-02-06 11:38:00,40.6,17.6,30.23,NNW,338,3.0,5.0,39,0.00,,,0.00,meteohub,2013-02-06 16:38:00,
2013-02-06 11:43:00,41.0,17.4,30.23,WNW,292,3.0,6.0,38,0.00,,,0.00,meteohub,2013-02-06 16:43:00,
2013-02-06 11:48:00,41.2,17.6,30.23,NW,315,3.0,6.0,38,0.00,,,0.00,meteohub,2013-02-06 16:48:00,
2013-02-06 11:53:00,41.2,17.6,30.23,NW,315,2.0,6.0,38,0.00,,,0.00,meteohub,2013-02-06 16:53:00,
2013-02-06 11:58:00,41.5,18.0,30.22,North,0,4.0,6.0,38,0.00,,,0.00,meteohub,2013-02-06 16:58:00,
2013-02-06 12:03:00,41.9,16.9,30.22,NNW,338,3.0,5.0,36,0.00,,,0.00,meteohub,2013-02-06 17:03:00,
2013-02-06 12:08:00,41.9,16.9,30.22,WNW,292,1.0,6.0,36,0.00,,,0.00,meteohub,2013-02-06 17:08:00,
2013-02-06 12:11:00,42.1,16.5,30.22,NW,315,3.0,6.0,35,0.00,,,0.00,meteohub,2013-02-06 17:11:00,
2013-02-06 12:17:00,42.3,16.0,30.22,NW,315,3.0,6.0,34,0.00,,,0.00,meteohub,2013-02-06 17:17:00,
2013-02-06 12:22:00,42.4,16.2,30.22,West,270,5.0,6.0,34,0.00,,,0.00,meteohub,2013-02-06 17:22:00,
2013-02-06 12:27:00,42.6,15.6,30.22,NW,315,6.0,6.0,33,0.00,,,0.00,meteohub,2013-02-06 17:27:00,
2013-02-06 12:32:00,42.6,14.9,30.22,NW,315,2.0,6.0,32,0.00,,,0.00,meteohub,2013-02-06 17:32:00,
2013-02-06 12:37:00,43.0,13.8,30.21,WNW,292,4.0,6.0,30,0.00,,,0.00,meteohub,2013-02-06 17:37:00,
2013-02-06 12:42:00,43.2,13.8,30.21,NW,315,4.0,6.0,30,0.00,,,0.00,meteohub,2013-02-06 17:42:00,
2013-02-06 12:47:00,43.5,13.5,30.21,WNW,292,5.0,6.0,29,0.00,,,0.00,meteohub,2013-02-06 17:47:00,
2013-02-06 12:52:00,43.5,13.5,30.21,WNW,292,4.0,8.0,29,0.00,,,0.00,meteohub,2013-02-06 17:52:00,
2013-02-06 12:57:00,44.1,14.0,30.20,WNW,292,3.0,8.0,29,0.00,,,0.00,meteohub,2013-02-06 17:57:00,
2013-02-06 13:02:00,44.2,14.0,30.20,NW,315,6.0,8.0,29,0.00,,,0.00,meteohub,2013-02-06 18:02:00,
2013-02-06 13:07:00,44.2,14.0,30.20,WNW,292,4.0,8.0,29,0.00,,,0.00,meteohub,2013-02-06 18:07:00,
2013-02-06 13:12:00,44.8,13.8,30.20,NNW,338,4.0,8.0,28,0.00,,,0.00,meteohub,2013-02-06 18:12:00,
2013-02-06 13:17:00,45.3,14.2,30.19,NW,315,3.0,8.0,28,0.00,,,0.00,meteohub,2013-02-06 18:17:00,
2013-02-06 13:22:00,45.3,14.2,30.19,NE,45,2.0,8.0,28,0.00,,,0.00,meteohub,2013-02-06 18:22:00,
2013-02-06 13:27:00,45.7,14.5,30.19,NW,315,6.0,8.0,28,0.00,,,0.00,meteohub,2013-02-06 18:27:00,
2013-02-06 13:32:00,45.9,14.7,30.19,NW,315,4.0,9.0,28,0.00,,,0.00,meteohub,2013-02-06 18:32:00,
2013-02-06 13:37:00,46.0,14.9,30.19,NW,315,4.0,9.0,28,0.00,,,0.00,meteohub,2013-02-06 18:37:00,
2013-02-06 13:42:00,46.2,14.9,30.19,NW,315,6.0,9.0,28,0.00,,,0.00,meteohub,2013-02-06 18:42:00,
2013-02-06 13:47:00,46.2,14.9,30.19,NNW,338,6.0,9.0,28,0.00,,,0.00,meteohub,2013-02-06 18:47:00,
2013-02-06 13:52:00,46.4,14.4,30.18,NW,315,5.0,9.0,27,0.00,,,0.00,meteohub,2013-02-06 18:52:00,
2013-02-06 13:57:00,46.4,14.4,30.18,NW,315,5.0,9.0,27,0.00,,,0.00,meteohub,2013-02-06 18:57:00,
2013-02-06 14:02:00,46.8,14.5,30.18,WNW,292,4.0,9.0,27,0.00,,,0.00,meteohub,2013-02-06 19:02:00,
2013-02-06 14:07:00,46.8,14.5,30.18,NNW,338,5.0,8.0,27,0.00,,,0.00,meteohub,2013-02-06 19:07:00,
2013-02-06 14:12:00,46.8,14.5,30.18,WNW,292,6.0,8.0,27,0.00,,,0.00,meteohub,2013-02-06 19:12:00,
2013-02-06 14:17:00,46.9,12.0,30.18,WNW,292,4.0,8.0,24,0.00,,,0.00,meteohub,2013-02-06 19:17:00,
2013-02-06 14:22:00,47.5,12.6,30.17,NNW,338,6.0,8.0,24,0.00,,,0.00,meteohub,2013-02-06 19:22:00,
2013-02-06 14:27:00,48.6,13.5,30.17,WNW,292,6.0,8.0,24,0.00,,,0.00,meteohub,2013-02-06 19:27:00,
2013-02-06 14:32:00,49.1,10.9,30.16,WNW,292,4.0,8.0,21,0.00,,,0.00,meteohub,2013-02-06 19:32:00,
2013-02-06 14:37:00,49.1,10.9,30.16,NW,315,6.0,9.0,21,0.00,,,0.00,meteohub,2013-02-06 19:37:00,
2013-02-06 14:42:00,50.0,11.7,30.15,NW,315,6.0,11.0,21,0.00,,,0.00,meteohub,2013-02-06 19:42:00,
2013-02-06 14:47:00,50.2,11.8,30.15,NNW,338,6.0,11.0,21,0.00,,,0.00,meteohub,2013-02-06 19:47:00,
2013-02-06 14:52:00,50.5,12.2,30.15,WNW,292,4.0,11.0,21,0.00,,,0.00,meteohub,2013-02-06 19:52:00,
2013-02-06 14:57:00,51.3,12.7,30.14,NNW,338,5.0,9.0,21,0.00,,,0.00,meteohub,2013-02-06 19:57:00,
2013-02-06 15:02:00,51.6,13.1,30.14,WNW,292,5.0,9.0,21,0.00,,,0.00,meteohub,2013-02-06 20:02:00,
2013-02-06 15:07:00,52.0,13.3,30.14,WNW,292,5.0,6.0,21,0.00,,,0.00,meteohub,2013-02-06 20:07:00,
2013-02-06 15:12:00,52.7,16.0,30.13,NNW,338,4.0,6.0,23,0.00,,,0.00,meteohub,2013-02-06 20:12:00,
2013-02-06 15:17:00,52.3,13.6,30.14,WNW,292,3.0,6.0,21,0.00,,,0.00,meteohub,2013-02-06 20:17:00,
2013-02-06 15:22:00,52.0,13.3,30.14,WNW,292,4.0,6.0,21,0.00,,,0.00,meteohub,2013-02-06 20:22:00,
2013-02-06 15:27:00,51.4,12.9,30.14,WNW,292,4.0,8.0,21,0.00,,,0.00,meteohub,2013-02-06 20:27:00,
2013-02-06 15:32:00,51.3,12.7,30.14,WNW,292,4.0,9.0,21,0.00,,,0.00,meteohub,2013-02-06 20:32:00,
2013-02-06 15:37:00,50.9,12.4,30.15,WNW,292,4.0,9.0,21,0.00,,,0.00,meteohub,2013-02-06 20:37:00,
2013-02-06 15:42:00,50.9,12.4,30.15,NW,315,4.0,9.0,21,0.00,,,0.00,meteohub,2013-02-06 20:42:00,
2013-02-06 15:47:00,49.8,11.5,30.16,NW,315,4.0,7.0,21,0.00,,,0.00,meteohub,2013-02-06 20:47:00,
2013-02-06 15:52:00,49.6,11.3,30.16,WNW,292,4.0,6.0,21,0.00,,,0.00,meteohub,2013-02-06 20:52:00,
2013-02-06 15:57:00,49.5,11.3,30.16,WNW,292,4.0,6.0,21,0.00,,,0.00,meteohub,2013-02-06 20:57:00,
2013-02-06 16:02:00,48.9,10.8,30.16,NW,315,5.0,6.0,21,0.00,,,0.00,meteohub,2013-02-06 21:02:00,
2013-02-06 16:07:00,48.6,10.4,30.17,WNW,292,5.0,6.0,21,0.00,,,0.00,meteohub,2013-02-06 21:07:00,
2013-02-06 16:12:00,48.4,10.4,30.17,NNW,338,3.0,6.0,21,0.00,,,0.00,meteohub,2013-02-06 21:12:00,
2013-02-06 16:17:00,47.8,10.9,30.17,NW,315,6.0,6.0,22,0.00,,,0.00,meteohub,2013-02-06 21:17:00,
2013-02-06 16:22:00,47.3,10.4,30.18,WNW,292,5.0,6.0,22,0.00,,,0.00,meteohub,2013-02-06 21:22:00,
2013-02-06 16:27:00,46.8,10.0,30.18,NW,315,4.0,6.0,22,0.00,,,0.00,meteohub,2013-02-06 21:27:00,
2013-02-06 16:32:00,46.4,9.7,30.18,NW,315,4.0,6.0,22,0.00,,,0.00,meteohub,2013-02-06 21:32:00,
2013-02-06 16:37:00,45.9,9.3,30.19,WNW,292,3.0,5.0,22,-99.99,,,0.00,meteohub,2013-02-06 21:37:00,
2013-02-06 16:42:00,45.3,8.8,30.19,NW,315,4.0,5.0,22,-99.99,,,0.00,meteohub,2013-02-06 21:42:00,
2013-02-06 16:47:00,45.1,8.6,30.19,NW,315,3.0,6.0,22,-99.99,,,0.00,meteohub,2013-02-06 21:47:00,
2013-02-06 16:52:00,44.6,11.1,30.20,WNW,292,4.0,6.0,25,-99.99,,,0.00,meteohub,2013-02-06 21:52:00,
2013-02-06 16:57:00,44.2,9.0,30.20,WNW,292,3.0,8.0,23,-99.99,,,0.00,meteohub,2013-02-06 21:57:00,
2013-02-06 17:02:00,43.9,8.6,30.20,NW,315,4.0,8.0,23,-99.99,,,0.00,meteohub,2013-02-06 22:02:00,
2013-02-06 17:07:00,43.7,10.2,30.21,WNW,292,2.0,8.0,25,-99.99,,,0.00,meteohub,2013-02-06 22:07:00,
2013-02-06 17:12:00,43.3,8.1,30.21,WNW,292,3.0,6.0,23,0.00,,,0.00,meteohub,2013-02-06 22:12:00,
2013-02-06 17:17:00,43.2,7.9,30.21,NW,315,3.0,6.0,23,0.00,,,0.00,meteohub,2013-02-06 22:17:00,
2013-02-06 17:22:00,43.2,7.9,30.21,WNW,292,4.0,5.0,23,0.00,,,0.00,meteohub,2013-02-06 22:22:00,
2013-02-06 17:27:00,42.8,9.5,30.25,NW,315,3.0,5.0,25,0.00,,,0.00,meteohub,2013-02-06 22:27:00,
2013-02-06 17:32:00,42.3,9.9,30.25,NW,315,4.0,4.0,26,0.00,,,0.00,meteohub,2013-02-06 22:32:00,
2013-02-06 17:37:00,41.7,11.1,30.26,WNW,292,2.0,4.0,28,0.00,,,0.00,meteohub,2013-02-06 22:37:00,
2013-02-06 17:42:00,41.0,10.4,30.23,WNW,292,3.0,4.0,28,0.00,,,0.00,meteohub,2013-02-06 22:42:00,
2013-02-06 17:47:00,40.5,10.8,30.23,NW,315,4.0,4.0,29,0.00,,,0.00,meteohub,2013-02-06 22:47:00,
2013-02-06 17:52:00,40.1,11.3,30.24,WNW,292,2.0,4.0,30,0.00,,,0.00,meteohub,2013-02-06 22:52:00,
2013-02-06 17:57:00,39.4,10.6,30.28,NW,315,3.0,4.0,30,0.00,,,0.00,meteohub,2013-02-06 22:57:00,
2013-02-06 18:02:00,38.8,10.9,30.28,WNW,292,3.0,4.0,31,0.00,,,0.00,meteohub,2013-02-06 23:02:00,
2013-02-06 18:07:00,38.7,11.5,30.28,NW,315,3.0,4.0,32,0.00,,,0.00,meteohub,2013-02-06 23:07:00,
2013-02-06 18:12:00,38.5,12.0,30.28,NNW,338,4.0,4.0,33,0.00,,,0.00,meteohub,2013-02-06 23:12:00,
2013-02-06 18:17:00,38.1,12.9,30.29,WNW,292,3.0,4.0,35,0.00,,,0.00,meteohub,2013-02-06 23:17:00,
2013-02-06 18:22:00,37.8,13.3,30.29,WNW,292,4.0,4.0,36,0.00,,,0.00,meteohub,2013-02-06 23:22:00,
2013-02-06 18:27:00,37.4,13.6,30.29,WNW,292,3.0,4.0,37,0.00,,,0.00,meteohub,2013-02-06 23:27:00,
2013-02-06 18:32:00,36.9,14.4,30.30,WNW,292,4.0,4.0,39,0.00,,,0.00,meteohub,2013-02-06 23:32:00,
2013-02-06 18:37:00,36.5,14.5,30.30,WNW,292,3.0,4.0,40,0.00,,,0.00,meteohub,2013-02-06 23:37:00,
2013-02-06 18:42:00,36.1,14.2,30.30,WNW,292,4.0,4.0,40,0.00,,,0.00,meteohub,2013-02-06 23:42:00,
2013-02-06 18:47:00,36.0,14.5,30.30,WNW,292,4.0,4.0,41,0.00,,,0.00,meteohub,2013-02-06 23:47:00,
2013-02-06 18:52:00,36.0,15.1,30.30,NW,315,6.0,6.0,42,0.00,,,0.00,meteohub,2013-02-06 23:52:00,
2013-02-06 18:57:00,36.0,15.6,30.30,NW,315,5.0,6.0,43,0.00,,,0.00,meteohub,2013-02-06 23:57:00,
2013-02-06 19:02:00,35.6,16.3,30.31,NW,315,4.0,6.0,45,0.00,,,0.00,meteohub,2013-02-07 00:02:00,
2013-02-06 19:07:00,35.6,16.9,30.31,NW,315,6.0,8.0,46,0.00,,,0.00,meteohub,2013-02-07 00:07:00,
2013-02-06 19:12:00,35.8,17.6,30.31,NW,315,6.0,8.0,47,0.00,,,0.00,meteohub,2013-02-07 00:12:00,
2013-02-06 19:17:00,35.8,17.6,30.31,NW,315,4.0,8.0,47,0.00,,,0.00,meteohub,2013-02-07 00:17:00,
2013-02-06 19:22:00,35.8,18.1,30.31,NW,315,6.0,7.0,48,0.00,,,0.00,meteohub,2013-02-07 00:22:00,
2013-02-06 19:27:00,35.6,17.4,30.31,NW,315,5.0,7.0,47,0.00,,,0.00,meteohub,2013-02-07 00:27:00,
2013-02-06 19:32:00,35.4,17.8,30.31,WNW,292,4.0,6.0,48,0.00,,,0.00,meteohub,2013-02-07 00:32:00,
2013-02-06 19:37:00,35.4,17.8,30.31,NW,315,6.0,6.0,48,0.00,,,0.00,meteohub,2013-02-07 00:37:00,
2013-02-06 19:42:00,35.2,17.1,30.31,NW,315,6.0,6.0,47,0.00,,,0.00,meteohub,2013-02-07 00:42:00,
2013-02-06 19:47:00,35.1,16.9,30.31,WNW,292,6.0,6.0,47,0.00,,,0.00,meteohub,2013-02-07 00:47:00,
2013-02-06 19:52:00,35.4,17.2,30.31,NW,315,6.0,7.0,47,0.00,,,0.00,meteohub,2013-02-07 00:52:00,
2013-02-06 19:57:00,35.8,17.1,30.31,NNE,22,8.0,8.0,46,0.00,,,0.00,meteohub,2013-02-07 00:57:00,
2013-02-06 20:02:00,36.0,17.2,30.30,NW,315,4.0,8.0,46,0.00,,,0.00,meteohub,2013-02-07 01:02:00,
2013-02-06 20:07:00,36.0,16.7,30.30,WNW,292,5.0,8.0,45,0.00,,,0.00,meteohub,2013-02-07 01:07:00,
2013-02-06 20:12:00,35.6,16.3,30.31,NW,315,3.0,8.0,45,0.00,,,0.00,meteohub,2013-02-07 01:12:00,
2013-02-06 20:17:00,35.1,16.3,30.31,NW,315,4.0,6.0,46,0.00,,,0.00,meteohub,2013-02-07 01:17:00,
2013-02-06 20:22:00,34.7,16.2,30.32,NW,315,4.0,6.0,46,0.00,,,0.00,meteohub,2013-02-07 01:22:00,
2013-02-06 20:27:00,34.9,16.7,30.31,NW,315,4.0,5.0,47,0.00,,,0.00,meteohub,2013-02-07 01:27:00,
2013-02-06 20:32:00,35.4,16.7,30.31,NW,315,4.0,5.0,46,0.00,,,0.00,meteohub,2013-02-07 01:32:00,
2013-02-06 20:37:00,35.4,16.7,30.31,NW,315,4.0,5.0,46,0.00,,,0.00,meteohub,2013-02-07 01:37:00,
2013-02-06 20:42:00,35.8,16.5,30.27,NW,315,4.0,5.0,45,0.00,,,0.00,meteohub,2013-02-07 01:42:00,
2013-02-06 20:47:00,35.6,16.3,30.27,NW,315,4.0,6.0,45,0.00,,,0.00,meteohub,2013-02-07 01:47:00,
2013-02-06 20:52:00,35.6,16.0,30.27,NW,315,0.0,6.0,44,0.00,,,0.00,meteohub,2013-02-07 01:52:00,
2013-02-06 20:57:00,35.6,16.0,30.31,NNW,338,2.0,6.0,44,0.00,,,0.00,meteohub,2013-02-07 01:57:00,
2013-02-06 21:02:00,35.6,16.0,30.31,NW,315,3.0,5.0,44,0.00,,,0.00,meteohub,2013-02-07 02:02:00,
2013-02-06 21:07:00,35.6,16.0,30.31,NW,315,3.0,4.0,44,0.00,,,0.00,meteohub,2013-02-07 02:07:00,
2013-02-06 21:12:00,35.6,16.0,30.31,NW,315,3.0,4.0,44,0.00,,,0.00,meteohub,2013-02-07 02:12:00,
2013-02-06 21:17:00,35.4,15.8,30.31,NW,315,2.0,4.0,44,0.00,,,0.00,meteohub,2013-02-07 02:17:00,
2013-02-06 21:22:00,35.4,15.8,30.31,WNW,292,0.0,3.0,44,0.00,,,0.00,meteohub,2013-02-07 02:22:00,
2013-02-06 21:27:00,35.2,15.6,30.31,NNW,338,2.0,3.0,44,0.00,,,0.00,meteohub,2013-02-07 02:27:00,
2013-02-06 21:32:00,35.2,15.6,30.31,NW,315,2.0,3.0,44,0.00,,,0.00,meteohub,2013-02-07 02:32:00,
2013-02-06 21:37:00,35.1,15.4,30.31,North,0,2.0,3.0,44,0.00,,,0.00,meteohub,2013-02-07 02:37:00,
2013-02-06 21:42:00,35.2,16.2,30.31,NNE,22,0.0,3.0,45,0.00,,,0.00,meteohub,2013-02-07 02:42:00,
2013-02-06 21:47:00,35.1,16.0,30.31,West,270,0.0,3.0,45,0.00,,,0.00,meteohub,2013-02-07 02:47:00,
2013-02-06 21:52:00,34.9,15.3,30.31,SW,225,0.0,3.0,44,0.00,,,0.00,meteohub,2013-02-07 02:52:00,
2013-02-06 21:57:00,34.7,14.5,30.32,South,180,0.0,1.0,43,0.00,,,0.00,meteohub,2013-02-07 02:57:00,
2013-02-06 22:02:00,34.5,14.4,30.32,SSE,158,0.0,0.0,43,0.00,,,0.00,meteohub,2013-02-07 03:02:00,
2013-02-06 22:07:00,34.3,14.2,30.32,SSW,202,3.0,3.0,43,0.00,,,0.00,meteohub,2013-02-07 03:07:00,
2013-02-06 22:12:00,34.3,14.2,30.35,SSE,158,4.0,4.0,43,0.00,,,0.00,meteohub,2013-02-07 03:12:00,
2013-02-06 22:17:00,34.9,13.6,30.35,SSE,158,6.0,6.0,41,0.00,,,0.00,meteohub,2013-02-07 03:17:00,
2013-02-06 22:22:00,36.3,13.8,30.34,SE,135,4.0,6.0,39,0.00,,,0.00,meteohub,2013-02-07 03:22:00,
2013-02-06 22:27:00,36.7,14.7,30.33,SSE,158,4.0,8.0,40,0.00,,,0.00,meteohub,2013-02-07 03:27:00,
2013-02-06 22:32:00,36.7,14.2,30.33,SSE,158,9.0,9.0,39,0.00,,,0.00,meteohub,2013-02-07 03:32:00,
2013-02-06 22:37:00,37.4,14.2,30.33,SSE,158,8.0,11.0,38,0.00,,,0.00,meteohub,2013-02-07 03:37:00,
2013-02-06 22:42:00,37.2,14.5,30.33,SSW,202,5.0,11.0,39,0.00,,,0.00,meteohub,2013-02-07 03:42:00,
2013-02-06 22:47:00,36.7,14.7,30.33,SSE,158,4.0,11.0,40,0.00,,,0.00,meteohub,2013-02-07 03:47:00,
2013-02-06 22:52:00,36.5,14.5,30.33,SSE,158,4.0,10.0,40,0.00,,,0.00,meteohub,2013-02-07 03:52:00,
2013-02-06 22:57:00,36.3,14.4,30.34,SSE,158,3.0,7.0,40,0.00,,,0.00,meteohub,2013-02-07 03:57:00,
2013-02-06 23:02:00,35.4,14.2,30.34,South,180,3.0,7.0,41,0.00,,,0.00,meteohub,2013-02-07 04:02:00,
2013-02-06 23:07:00,34.5,13.8,30.35,SSW,202,2.0,7.0,42,0.00,,,0.00,meteohub,2013-02-07 04:07:00,
2013-02-06 23:12:00,34.0,13.3,30.36,SSE,158,3.0,5.0,42,0.00,,,0.00,meteohub,2013-02-07 04:12:00,
2013-02-06 23:17:00,33.6,13.6,30.36,SSE,158,4.0,5.0,43,0.00,,,0.00,meteohub,2013-02-07 04:17:00,
2013-02-06 23:22:00,33.6,14.2,30.36,South,180,4.0,6.0,44,0.00,,,0.00,meteohub,2013-02-07 04:22:00,
2013-02-06 23:27:00,33.4,14.0,30.36,South,180,4.0,6.0,44,0.00,,,0.00,meteohub,2013-02-07 04:27:00,
2013-02-06 23:32:00,34.0,14.9,30.36,SE,135,3.0,4.0,45,0.00,,,0.00,meteohub,2013-02-07 04:32:00,
2013-02-06 23:37:00,34.7,15.1,30.35,South,180,4.0,6.0,44,0.00,,,0.00,meteohub,2013-02-07 04:37:00,
2013-02-06 23:42:00,35.4,15.3,30.34,SSE,158,4.0,6.0,43,0.00,,,0.00,meteohub,2013-02-07 04:42:00,
2013-02-06 23:47:00,35.8,15.1,30.34,SSE,158,6.0,6.0,42,0.00,,,0.00,meteohub,2013-02-07 04:47:00,
2013-02-06 23:53:00,36.5,15.1,30.30,SSE,158,5.0,6.0,41,0.00,,,0.00,meteohub,2013-02-07 04:53:00,
2013-02-06 23:58:00,36.5,15.6,30.30,SSE,158,5.0,6.0,42,0.00,,,0.00,meteohub,2013-02-07 04:58:00,